sensor_id;sensor_type;location;lat;lon;timestamp;P1;durP1;ratioP1;P2;durP2;ratioP2
64242;SDS011;50573;51.512;5.386;2023-04-24T00:02:52;20.90;;;15.40;;
64242;SDS011;50573;51.512;5.386;2023-04-24T00:12:59;24.60;;;14.95;;
64242;SDS011;50573;51.512;5.386;2023-04-24T00:23:06;29.52;;;19.67;;
64242;SDS011;50573;51.512;5.386;2023-04-24T00:33:09;36.47;;;20.95;;
64242;SDS011;50573;51.512;5.386;2023-04-24T00:43:13;37.67;;;22.65;;
64242;SDS011;50573;51.512;5.386;2023-04-24T00:53:16;42.23;;;22.60;;
64242;SDS011;50573;51.512;5.386;2023-04-24T01:03:21;38.33;;;24.88;;
64242;SDS011;50573;51.512;5.386;2023-04-24T01:13:28;39.42;;;26.38;;
64242;SDS011;50573;51.512;5.386;2023-04-24T01:23:33;44.30;;;27.10;;
64242;SDS011;50573;51.512;5.386;2023-04-24T01:33:36;46.95;;;31.45;;
64242;SDS011;50573;51.512;5.386;2023-04-24T01:43:40;60.92;;;34.00;;
64242;SDS011;50573;51.512;5.386;2023-04-24T01:53:43;59.03;;;35.40;;
64242;SDS011;50573;51.512;5.386;2023-04-24T02:03:48;60.08;;;35.70;;
64242;SDS011;50573;51.512;5.386;2023-04-24T02:13:51;56.93;;;35.30;;
64242;SDS011;50573;51.512;5.386;2023-04-24T02:23:55;61.17;;;37.08;;
64242;SDS011;50573;51.512;5.386;2023-04-24T02:33:58;55.90;;;34.75;;
64242;SDS011;50573;51.512;5.386;2023-04-24T02:44:03;52.90;;;33.92;;
64242;SDS011;50573;51.512;5.386;2023-04-24T02:54:06;45.47;;;26.57;;
64242;SDS011;50573;51.512;5.386;2023-04-24T03:04:12;38.73;;;25.23;;
64242;SDS011;50573;51.512;5.386;2023-04-24T03:14:15;53.95;;;32.55;;
64242;SDS011;50573;51.512;5.386;2023-04-24T03:24:19;46.72;;;30.30;;
64242;SDS011;50573;51.512;5.386;2023-04-24T03:34:24;41.25;;;28.40;;
64242;SDS011;50573;51.512;5.386;2023-04-24T03:44:29;36.35;;;26.48;;
64242;SDS011;50573;51.512;5.386;2023-04-24T03:54:32;37.90;;;26.00;;
64242;SDS011;50573;51.512;5.386;2023-04-24T04:04:40;40.05;;;25.95;;
64242;SDS011;50573;51.512;5.386;2023-04-24T04:14:44;35.47;;;26.63;;
64242;SDS011;50573;51.512;5.386;2023-04-24T04:24:48;33.80;;;24.75;;
64242;SDS011;50573;51.512;5.386;2023-04-24T04:34:55;39.20;;;25.95;;
64242;SDS011;50573;51.512;5.386;2023-04-24T04:45:03;31.13;;;24.73;;
64242;SDS011;50573;51.512;5.386;2023-04-24T04:55:19;29.60;;;22.25;;
64242;SDS011;50573;51.512;5.386;2023-04-24T05:05:53;27.65;;;21.38;;
64242;SDS011;50573;51.512;5.386;2023-04-24T05:15:57;27.48;;;19.33;;
64242;SDS011;50573;51.512;5.386;2023-04-24T05:26:04;23.27;;;14.63;;
64242;SDS011;50573;51.512;5.386;2023-04-24T05:36:08;14.43;;;6.18;;
64242;SDS011;50573;51.512;5.386;2023-04-24T05:46:13;7.75;;;4.82;;
64242;SDS011;50573;51.512;5.386;2023-04-24T05:56:16;6.57;;;3.97;;
64242;SDS011;50573;51.512;5.386;2023-04-24T06:06:21;6.07;;;4.90;;
64242;SDS011;50573;51.512;5.386;2023-04-24T06:16:25;18.02;;;9.90;;
64242;SDS011;50573;51.512;5.386;2023-04-24T06:26:36;17.63;;;10.93;;
64242;SDS011;50573;51.512;5.386;2023-04-24T06:36:41;22.13;;;12.68;;
64242;SDS011;50573;51.512;5.386;2023-04-24T06:46:46;25.27;;;13.98;;
64242;SDS011;50573;51.512;5.386;2023-04-24T07:06:55;40.20;;;19.70;;
64242;SDS011;50573;51.512;5.386;2023-04-24T07:16:59;31.55;;;18.67;;
64242;SDS011;50573;51.512;5.386;2023-04-24T07:27:04;40.10;;;21.85;;
64242;SDS011;50573;51.512;5.386;2023-04-24T07:37:07;26.23;;;14.80;;
64242;SDS011;50573;51.512;5.386;2023-04-24T07:47:11;33.30;;;13.18;;
64242;SDS011;50573;51.512;5.386;2023-04-24T07:57:16;31.38;;;9.80;;
64242;SDS011;50573;51.512;5.386;2023-04-24T08:07:20;33.28;;;11.90;;
64242;SDS011;50573;51.512;5.386;2023-04-24T08:17:24;49.50;;;14.73;;
64242;SDS011;50573;51.512;5.386;2023-04-24T08:27:28;38.38;;;13.38;;
64242;SDS011;50573;51.512;5.386;2023-04-24T08:37:31;23.17;;;7.57;;
64242;SDS011;50573;51.512;5.386;2023-04-24T08:47:36;39.60;;;8.82;;
64242;SDS011;50573;51.512;5.386;2023-04-24T08:57:40;28.73;;;9.57;;
64242;SDS011;50573;51.512;5.386;2023-04-24T09:07:48;22.95;;;6.38;;
64242;SDS011;50573;51.512;5.386;2023-04-24T09:17:55;25.05;;;6.13;;
64242;SDS011;50573;51.512;5.386;2023-04-24T09:28:01;27.08;;;6.55;;
64242;SDS011;50573;51.512;5.386;2023-04-24T09:38:05;28.05;;;5.20;;
64242;SDS011;50573;51.512;5.386;2023-04-24T09:48:10;33.30;;;5.40;;
64242;SDS011;50573;51.512;5.386;2023-04-24T09:58:13;11.75;;;3.30;;
64242;SDS011;50573;51.512;5.386;2023-04-24T10:08:17;23.00;;;4.55;;
64242;SDS011;50573;51.512;5.386;2023-04-24T10:18:20;19.53;;;3.63;;
64242;SDS011;50573;51.512;5.386;2023-04-24T10:28:25;7.80;;;2.08;;
64242;SDS011;50573;51.512;5.386;2023-04-24T10:38:30;7.90;;;2.03;;
64242;SDS011;50573;51.512;5.386;2023-04-24T10:48:35;9.25;;;1.88;;
64242;SDS011;50573;51.512;5.386;2023-04-24T10:58:39;7.45;;;2.00;;
64242;SDS011;50573;51.512;5.386;2023-04-24T11:08:47;6.47;;;1.92;;
64242;SDS011;50573;51.512;5.386;2023-04-24T11:18:52;9.77;;;2.00;;
64242;SDS011;50573;51.512;5.386;2023-04-24T11:29:07;9.63;;;2.05;;
64242;SDS011;50573;51.512;5.386;2023-04-24T11:39:11;9.82;;;1.92;;
64242;SDS011;50573;51.512;5.386;2023-04-24T11:49:15;9.63;;;1.85;;
64242;SDS011;50573;51.512;5.386;2023-04-24T11:59:18;4.23;;;1.23;;
64242;SDS011;50573;51.512;5.386;2023-04-24T12:09:23;9.02;;;1.65;;
64242;SDS011;50573;51.512;5.386;2023-04-24T12:39:36;7.25;;;1.50;;
64242;SDS011;50573;51.512;5.386;2023-04-24T12:49:41;6.95;;;1.60;;
64242;SDS011;50573;51.512;5.386;2023-04-24T12:59:43;11.87;;;1.53;;
64242;SDS011;50573;51.512;5.386;2023-04-24T13:09:48;7.00;;;1.67;;
64242;SDS011;50573;51.512;5.386;2023-04-24T13:19:54;10.93;;;1.67;;
64242;SDS011;50573;51.512;5.386;2023-04-24T13:29:59;7.85;;;1.60;;
64242;SDS011;50573;51.512;5.386;2023-04-24T13:40:02;8.47;;;2.43;;
64242;SDS011;50573;51.512;5.386;2023-04-24T13:50:09;9.63;;;2.72;;
64242;SDS011;50573;51.512;5.386;2023-04-24T14:00:13;7.95;;;2.60;;
64242;SDS011;50573;51.512;5.386;2023-04-24T14:10:18;9.25;;;1.77;;
64242;SDS011;50573;51.512;5.386;2023-04-24T14:20:21;7.43;;;2.28;;
64242;SDS011;50573;51.512;5.386;2023-04-24T14:30:26;9.05;;;2.13;;
64242;SDS011;50573;51.512;5.386;2023-04-24T14:40:29;7.20;;;2.40;;
64242;SDS011;50573;51.512;5.386;2023-04-24T14:50:54;5.47;;;1.92;;
64242;SDS011;50573;51.512;5.386;2023-04-24T15:00:57;7.83;;;2.13;;
64242;SDS011;50573;51.512;5.386;2023-04-24T15:11:01;11.35;;;2.42;;
64242;SDS011;50573;51.512;5.386;2023-04-24T15:21:05;5.78;;;2.28;;
64242;SDS011;50573;51.512;5.386;2023-04-24T15:31:10;4.50;;;1.80;;
64242;SDS011;50573;51.512;5.386;2023-04-24T15:41:13;9.63;;;2.80;;
64242;SDS011;50573;51.512;5.386;2023-04-24T15:51:17;18.88;;;3.72;;
64242;SDS011;50573;51.512;5.386;2023-04-24T16:01:20;11.50;;;3.40;;
64242;SDS011;50573;51.512;5.386;2023-04-24T16:11:25;14.50;;;4.07;;
64242;SDS011;50573;51.512;5.386;2023-04-24T16:21:28;12.48;;;3.85;;
64242;SDS011;50573;51.512;5.386;2023-04-24T16:31:33;14.13;;;3.83;;
64242;SDS011;50573;51.512;5.386;2023-04-24T16:41:36;13.60;;;3.67;;
64242;SDS011;50573;51.512;5.386;2023-04-24T16:51:41;12.15;;;4.45;;
64242;SDS011;50573;51.512;5.386;2023-04-24T17:01:44;14.27;;;5.80;;
64242;SDS011;50573;51.512;5.386;2023-04-24T17:11:48;12.73;;;3.83;;
64242;SDS011;50573;51.512;5.386;2023-04-24T17:21:54;15.07;;;3.17;;
64242;SDS011;50573;51.512;5.386;2023-04-24T17:32:00;12.47;;;3.97;;
64242;SDS011;50573;51.512;5.386;2023-04-24T17:42:04;13.98;;;4.07;;
64242;SDS011;50573;51.512;5.386;2023-04-24T17:52:08;18.08;;;4.55;;
64242;SDS011;50573;51.512;5.386;2023-04-24T18:02:12;21.08;;;4.68;;
64242;SDS011;50573;51.512;5.386;2023-04-24T18:12:16;17.73;;;5.10;;
64242;SDS011;50573;51.512;5.386;2023-04-24T18:22:19;17.57;;;5.67;;
64242;SDS011;50573;51.512;5.386;2023-04-24T18:32:30;20.48;;;5.75;;
64242;SDS011;50573;51.512;5.386;2023-04-24T18:42:37;20.13;;;6.00;;
64242;SDS011;50573;51.512;5.386;2023-04-24T18:52:41;17.48;;;5.63;;
64242;SDS011;50573;51.512;5.386;2023-04-24T19:02:44;16.87;;;4.20;;
64242;SDS011;50573;51.512;5.386;2023-04-24T19:12:49;21.05;;;6.35;;
64242;SDS011;50573;51.512;5.386;2023-04-24T19:22:56;25.02;;;7.45;;
64242;SDS011;50573;51.512;5.386;2023-04-24T19:33:01;27.88;;;6.90;;
64242;SDS011;50573;51.512;5.386;2023-04-24T19:43:04;17.83;;;7.77;;
64242;SDS011;50573;51.512;5.386;2023-04-24T19:53:09;23.90;;;7.38;;
64242;SDS011;50573;51.512;5.386;2023-04-24T20:03:12;36.40;;;9.30;;
64242;SDS011;50573;51.512;5.386;2023-04-24T20:13:34;28.25;;;10.02;;
64242;SDS011;50573;51.512;5.386;2023-04-24T20:23:37;43.13;;;13.17;;
64242;SDS011;50573;51.512;5.386;2023-04-24T20:33:42;28.60;;;8.82;;
64242;SDS011;50573;51.512;5.386;2023-04-24T20:43:46;30.35;;;8.60;;
64242;SDS011;50573;51.512;5.386;2023-04-24T20:53:50;25.80;;;9.38;;
64242;SDS011;50573;51.512;5.386;2023-04-24T21:03:53;38.40;;;10.23;;
64242;SDS011;50573;51.512;5.386;2023-04-24T21:13:58;26.85;;;9.65;;
64242;SDS011;50573;51.512;5.386;2023-04-24T21:24:04;36.70;;;11.40;;
64242;SDS011;50573;51.512;5.386;2023-04-24T21:34:08;34.55;;;11.57;;
64242;SDS011;50573;51.512;5.386;2023-04-24T21:44:11;36.57;;;12.70;;
64242;SDS011;50573;51.512;5.386;2023-04-24T21:54:16;38.42;;;13.70;;
64242;SDS011;50573;51.512;5.386;2023-04-24T22:04:21;30.55;;;11.30;;
64242;SDS011;50573;51.512;5.386;2023-04-24T22:14:25;35.97;;;10.63;;
64242;SDS011;50573;51.512;5.386;2023-04-24T22:24:28;36.07;;;10.57;;
64242;SDS011;50573;51.512;5.386;2023-04-24T22:34:33;32.33;;;10.75;;
64242;SDS011;50573;51.512;5.386;2023-04-24T22:44:36;29.27;;;9.93;;
64242;SDS011;50573;51.512;5.386;2023-04-24T22:54:40;29.98;;;9.68;;
64242;SDS011;50573;51.512;5.386;2023-04-24T23:04:43;21.73;;;8.70;;
64242;SDS011;50573;51.512;5.386;2023-04-24T23:14:48;25.75;;;8.35;;
64242;SDS011;50573;51.512;5.386;2023-04-24T23:24:51;21.03;;;8.50;;
64242;SDS011;50573;51.512;5.386;2023-04-24T23:34:55;25.35;;;8.77;;
64242;SDS011;50573;51.512;5.386;2023-04-24T23:44:58;31.77;;;9.00;;
64242;SDS011;50573;51.512;5.386;2023-04-24T23:55:03;21.25;;;7.78;;
